createdAt,value
2023-06-19T00:02:25.154Z,26.1
2023-06-19T00:07:33.104Z,26
2023-06-19T00:12:41.033Z,26
2023-06-19T00:17:47.241Z,25.9
2023-06-19T00:22:53.388Z,25.8
2023-06-19T00:28:01.338Z,25.8
2023-06-19T00:33:07.482Z,25.7
2023-06-19T00:38:13.665Z,25.6
2023-06-19T00:43:21.647Z,25.6
2023-06-19T00:48:27.777Z,25.5
2023-06-19T00:53:35.828Z,25.5
2023-06-19T00:58:41.902Z,25.4
2023-06-19T01:03:48.304Z,25.4
2023-06-19T01:08:56.007Z,25.3
2023-06-19T01:14:03.972Z,25.2
2023-06-19T01:19:11.901Z,25.2
2023-06-19T01:24:18.150Z,25.1
2023-06-19T01:34:33.978Z,25
2023-06-19T01:39:41.937Z,25
2023-06-19T01:49:56.020Z,24.9
2023-06-19T01:55:02.224Z,24.9
2023-06-19T02:00:10.156Z,24.8
2023-06-19T02:05:18.120Z,24.8
2023-06-19T02:10:24.435Z,24.7
2023-06-19T02:15:30.446Z,24.7
2023-06-19T02:20:36.595Z,24.7
2023-06-19T02:25:44.523Z,24.6
2023-06-19T02:30:50.714Z,24.6
2023-06-19T02:35:58.651Z,24.5
2023-06-19T02:41:04.817Z,24.5
2023-06-19T02:46:13.606Z,24.5
2023-06-19T02:51:20.698Z,24.4
2023-06-19T03:01:36.657Z,24.3
2023-06-19T03:06:42.754Z,24.3
2023-06-19T03:11:50.731Z,24.3
2023-06-19T03:16:58.683Z,24.2
2023-06-19T03:22:04.867Z,24.2
2023-06-19T03:27:12.774Z,24.1
2023-06-19T03:32:18.969Z,24.1
2023-06-19T03:37:26.927Z,24.1
2023-06-19T03:42:34.857Z,24
2023-06-19T03:47:42.822Z,24
2023-06-19T03:52:48.968Z,23.9
2023-06-19T03:57:55.153Z,23.9
2023-06-19T04:03:01.497Z,23.9
2023-06-19T04:08:07.459Z,23.8
2023-06-19T04:13:13.652Z,23.8
2023-06-19T04:18:19.796Z,23.8
2023-06-19T04:23:27.705Z,23.7
2023-06-19T04:28:35.702Z,23.7
2023-06-19T04:33:41.913Z,23.7
2023-06-19T04:38:48.042Z,23.7
2023-06-19T04:43:56.360Z,23.6
2023-06-19T04:49:03.918Z,23.6
2023-06-19T04:54:10.107Z,23.6
2023-06-19T05:04:24.217Z,23.6
2023-06-19T05:09:32.193Z,23.6
2023-06-19T05:19:44.489Z,23.6
2023-06-19T05:24:52.466Z,23.5
2023-06-19T05:30:00.456Z,23.5
2023-06-19T05:35:06.591Z,23.5
2023-06-19T05:40:14.517Z,23.5
2023-06-19T05:45:20.694Z,23.5
2023-06-19T05:50:28.654Z,23.5
2023-06-19T05:55:34.862Z,23.5
2023-06-19T06:00:42.764Z,23.6
2023-06-19T06:05:48.908Z,23.7
2023-06-19T06:10:55.105Z,23.7
2023-06-19T06:16:01.251Z,23.8
2023-06-19T06:21:07.405Z,23.8
2023-06-19T06:26:15.387Z,23.9
2023-06-19T06:31:23.330Z,23.9
2023-06-19T06:41:37.472Z,24.1
2023-06-19T06:46:43.603Z,24.1
2023-06-19T06:51:51.540Z,24.2
2023-06-19T06:56:57.968Z,24.2
2023-06-19T07:02:03.948Z,24.3
2023-06-19T07:07:11.826Z,24.3
2023-06-19T07:12:18.015Z,24.3
2023-06-19T07:17:26.057Z,24.4
2023-06-19T07:22:32.118Z,24.4
2023-06-19T07:27:38.267Z,24.5
2023-06-19T07:32:44.442Z,24.5
2023-06-19T07:37:52.404Z,24.6
2023-06-19T07:42:58.566Z,24.6
2023-06-19T07:48:06.598Z,24.7
2023-06-19T07:53:14.535Z,24.8
2023-06-19T07:58:22.402Z,24.8
2023-06-19T08:03:30.485Z,24.9
2023-06-19T08:08:36.526Z,24.9
2023-06-19T08:13:42.714Z,25
2023-06-19T08:18:50.626Z,25.1
2023-06-19T08:23:58.640Z,25.1
2023-06-19T08:29:04.750Z,25.2
2023-06-19T08:34:12.711Z,25.3
2023-06-19T08:39:20.642Z,25.4
2023-06-19T08:44:26.834Z,25.4
2023-06-19T08:49:34.770Z,25.5
2023-06-19T08:54:40.925Z,25.6
2023-06-19T08:59:47.120Z,25.6
2023-06-19T09:04:53.298Z,25.7
2023-06-19T09:09:59.469Z,25.8
2023-06-19T09:15:07.441Z,25.9
2023-06-19T09:20:15.345Z,25.9
2023-06-19T09:25:21.488Z,26
2023-06-19T09:30:27.668Z,26.1
2023-06-19T09:35:35.557Z,26.2
2023-06-19T09:40:43.584Z,26.3
2023-06-19T09:45:51.537Z,26.3
2023-06-19T09:50:57.674Z,26.4
2023-06-19T09:56:05.640Z,26.5
2023-06-19T10:01:13.576Z,26.6
2023-06-19T10:06:19.770Z,26.7
2023-06-19T10:11:27.711Z,26.7
2023-06-19T10:16:33.918Z,26.8
2023-06-19T10:21:41.803Z,26.9
2023-06-19T10:26:49.757Z,27
2023-06-19T10:31:55.949Z,27.1
2023-06-19T10:37:02.133Z,27.2
2023-06-19T10:47:16.241Z,27.4
2023-06-19T10:52:22.390Z,27.5
2023-06-19T10:57:30.317Z,27.6
2023-06-19T11:02:36.536Z,27.8
2023-06-19T11:07:44.467Z,27.9
2023-06-19T11:12:52.385Z,28
2023-06-19T11:23:08.300Z,28.3
2023-06-19T11:28:14.453Z,28.4
2023-06-19T11:33:22.392Z,28.5
2023-06-19T11:38:30.368Z,28.7
2023-06-19T11:43:36.515Z,28.8
2023-06-19T11:48:53.256Z,28.9
2023-06-19T11:53:50.634Z,29
2023-06-19T11:58:56.825Z,29.1
2023-06-19T12:04:03.257Z,29.2
2023-06-19T12:09:10.892Z,29.4
2023-06-19T12:14:17.161Z,29.5
2023-06-19T12:19:23.232Z,29.6
2023-06-19T12:24:29.469Z,29.7
2023-06-19T12:29:37.351Z,29.8
2023-06-19T12:34:45.310Z,29.9
2023-06-19T12:39:53.224Z,30
2023-06-19T12:50:09.167Z,30.3
2023-06-19T12:55:15.334Z,30.4
2023-06-19T13:00:21.562Z,30.5
2023-06-19T13:05:27.653Z,30.6
2023-06-19T13:10:35.576Z,30.8
2023-06-19T13:15:41.765Z,30.9
2023-06-19T13:20:49.687Z,31
2023-06-19T13:25:57.674Z,31.1
2023-06-19T13:31:05.597Z,31.2
2023-06-19T13:36:11.759Z,31.3
2023-06-19T13:41:19.710Z,31.4
2023-06-19T13:46:27.677Z,31.5
2023-06-19T13:51:33.832Z,31.6
2023-06-19T13:56:41.776Z,31.7
2023-06-19T14:01:49.724Z,31.8
2023-06-19T14:06:57.643Z,31.9
2023-06-19T14:12:05.602Z,32
2023-06-19T14:17:11.872Z,32
2023-06-19T14:22:19.718Z,32.1
2023-06-19T14:27:27.691Z,32.2
2023-06-19T14:32:33.878Z,32.3
2023-06-19T14:37:41.857Z,32.3
2023-06-19T14:42:49.759Z,32.4
2023-06-19T14:47:55.960Z,32.4
2023-06-19T14:53:02.080Z,32.4
2023-06-19T14:58:08.237Z,32.5
2023-06-19T15:03:16.345Z,32.6
2023-06-19T15:08:22.355Z,32.6
2023-06-19T15:13:30.292Z,32.7
2023-06-19T15:18:38.277Z,32.8
2023-06-19T15:23:44.433Z,32.9
2023-06-19T15:28:52.363Z,32.9
2023-06-19T15:34:00.334Z,33
2023-06-19T15:39:06.471Z,33.1
2023-06-19T15:44:14.389Z,33.2
2023-06-19T15:49:22.347Z,33.2
2023-06-19T15:54:28.535Z,33.3
2023-06-19T16:04:42.640Z,33.4
2023-06-19T16:09:55.473Z,33.5
2023-06-19T16:20:06.464Z,33.6
2023-06-19T16:25:14.423Z,33.6
2023-06-19T16:30:20.592Z,33.6
2023-06-19T16:35:28.543Z,33.6
2023-06-19T16:40:34.702Z,33.6
2023-06-19T16:45:40.863Z,33.6
2023-06-19T16:50:48.838Z,33.6
2023-06-19T16:55:54.993Z,33.5
2023-06-19T17:01:01.201Z,33.5
2023-06-19T17:06:09.113Z,33.5
2023-06-19T17:11:20.586Z,33.4
2023-06-19T17:16:21.476Z,33.4
2023-06-19T17:21:27.590Z,33.3
2023-06-19T17:26:33.761Z,33.2
2023-06-19T17:31:39.919Z,33.2
2023-06-19T17:36:47.870Z,33.1
2023-06-19T17:41:55.798Z,33
2023-06-19T17:47:01.949Z,33
2023-06-19T17:52:09.949Z,32.9
2023-06-19T17:57:17.878Z,32.8
2023-06-19T18:02:24.193Z,32.7
2023-06-19T18:07:31.980Z,32.6
2023-06-19T18:12:39.984Z,32.5
2023-06-19T18:17:46.174Z,32.4
2023-06-19T18:22:54.086Z,32.3
2023-06-19T18:28:02.010Z,32.2
2023-06-19T18:33:08.215Z,32.1
2023-06-19T18:38:16.167Z,32.1
2023-06-19T18:43:24.112Z,32
2023-06-19T18:48:32.040Z,31.9
2023-06-19T18:53:38.182Z,31.8
2023-06-19T18:58:46.141Z,31.7
2023-06-19T19:03:52.357Z,31.6
2023-06-19T19:14:06.413Z,31.4
2023-06-19T19:19:12.586Z,31.3
2023-06-19T19:24:23.020Z,31.2
2023-06-19T19:29:26.718Z,31.1
2023-06-19T19:34:32.869Z,31
2023-06-19T19:39:39.038Z,30.9
2023-06-19T19:44:45.189Z,30.8
2023-06-19T19:49:51.326Z,30.7
2023-06-19T19:54:57.537Z,30.6
2023-06-19T20:05:11.616Z,30.4
2023-06-19T20:10:19.565Z,30.3
2023-06-19T20:15:25.742Z,30.2
2023-06-19T20:20:33.700Z,30.1
2023-06-19T20:25:41.634Z,30
2023-06-19T20:30:49.612Z,29.9
2023-06-19T20:35:55.699Z,29.8
2023-06-19T20:41:03.706Z,29.7
2023-06-19T20:46:09.872Z,29.6
2023-06-19T20:51:16.062Z,29.5
2023-06-19T20:56:23.971Z,29.4
2023-06-19T21:01:30.266Z,29.3
2023-06-19T21:06:38.120Z,29.2
2023-06-19T21:11:46.050Z,29.1
2023-06-19T21:16:52.253Z,29
2023-06-19T21:22:00.153Z,29
2023-06-19T21:27:06.334Z,28.9
2023-06-19T21:32:14.280Z,28.8
2023-06-19T21:37:20.444Z,28.7
2023-06-19T21:42:26.636Z,28.6
2023-06-19T21:47:32.791Z,28.5
2023-06-19T21:52:40.721Z,28.5
2023-06-19T21:57:58.479Z,28.4
2023-06-19T22:02:54.978Z,28.3
2023-06-19T22:08:02.782Z,28.2
2023-06-19T22:13:08.975Z,28.2
2023-06-19T22:18:16.901Z,28.1
2023-06-19T22:23:24.868Z,28
2023-06-19T22:28:31.012Z,27.9
2023-06-19T22:33:38.975Z,27.9
2023-06-19T22:38:46.859Z,27.8
2023-06-19T22:43:53.081Z,27.7
2023-06-19T22:49:01.063Z,27.7
2023-06-19T22:54:08.973Z,27.6
2023-06-19T22:59:16.946Z,27.5
2023-06-19T23:04:23.100Z,27.5
2023-06-19T23:09:29.262Z,27.4
2023-06-19T23:14:35.381Z,27.3
2023-06-19T23:19:41.585Z,27.3
2023-06-19T23:24:47.778Z,27.2
2023-06-19T23:35:03.654Z,27.1
2023-06-19T23:40:11.644Z,27
2023-06-19T23:45:17.777Z,26.9
2023-06-19T23:50:25.725Z,26.9
2023-06-19T23:55:31.895Z,26.8
